Home PIREPS Pireps

Flight WIN1005

  • Submitted By: Carl Hermans
  • Departure Airport: airport Innsbruck (LOWI)
  • Arrival Airport: Bruxelles National (EBBR)
  • Aircraft: YOUR CHOICE (YC)
  • Flight Time: 02.03
  • Date Submitted: 04/12/2016
  • Status: Accepted
Flight Details
Gross Revenue:
(25 load / € 0.00 per unit
€ 0.00
Fuel Cost:
(4328 fuel used @ 5.1 / unit)
€ 22,072.80

Additional Log Information:

View Log

Aircraft Used in flight is x737-800_v502 Brussels Airlines
12:18Flaps 3 Selected at 1890ft and 0kts
12:18 Engine 1 Started
12:18 Engine 2 Started
12:18 Engine 3 Started
12:18 Engine 4 Started
12:18 Strobe Lights ON at 1890 AGL
12:18 Navigation Lights ON at 1890 AGL
12:18 Beacon Lights ON at 1890 AGL
12:18 Brakes are On
12:19 Brakes are Released
12:19 Taxi Lights ON at 1890 AGL
12:20 Brakes are On
12:25 Brakes are Released
12:32 Brakes are On
12:32 Brakes are Released
12:34 You Took off @ 163 Knots and Flaps at Position 3
Departure Weather
LOWI 041120Z VRB01KT CAVOK 02/M04 Q1025 NOSIGrn
12:34 Landing Gear Up @ 214 Knots and 1990 Feet
12:34 Taxi Lights OFF at 2010 AGL
12:34Flaps Retracted at 2060ft and 218kts
12:35 Below 10000 feet you are not allowed to go over 250 knots
12:37 Above FL100 you need to switch of the landing lights
12:45 You exceeded maximum bank angle
12:47 Stalling
12:49 Recovered from Stall
12:49 Stalling
12:51 Recovered from Stall
13:01 Stalling
13:04 Recovered from Stall
13:09 Overspeed
13:10 Recovered from Overspeed
14:06Flaps 1 Selected at 2140ft and 171kts
14:06Flaps 3 Selected at 2140ft and 170kts
14:06Flaps 4 Selected at 2120ft and 164kts
14:07Flaps 5 Selected at 2210ft and 161kts
14:09 Landing Gear Down @ 150 Knots and 2300 Feet
14:09Flaps 8 Selected at 2300ft and 150kts
14:12 Landing Gear Up @ 147 Knots and 1100 Feet
14:18 Landing Gear Down @ 155 Knots and 1980 Feet
14:21 You Landed @ 137 Knots and with -900 Vertical Speed
Arrival Weather
EBBR 041250Z 09006KT CAVOK 03/M03 Q1025 NOSIGrn
14:21 Your Landing was very hard
14:21 Brakes are On
14:21 Brakes are Released
14:22 Brakes are On
14:22 Paused
14:22 Brussels Bel-Track1.0.0.11

Route Map

Corporate About Us Our Team Vacancies Information Fleet Route Network Rules and Regulations Operations Flight Schedules Event Center Tours Partners IVAO Vatsim Acars dev FSCB

fb Users Online Belgium Roger Wijns, United Kingdom David Chenery,
4 Pilot(s) and 227 Guest(s) Online
CMS by phpVMS - Design by Crazycreatives.com - Copyright © 2018 - Brussels Airlines Virtual